sensor_id;sensor_type;location;lat;lon;timestamp;P1;durP1;ratioP1;P2;durP2;ratioP2
26082;SDS011;13848;49.018;12.078;2023-02-19T00:02:23;2.95;;;2.40;;
26082;SDS011;13848;49.018;12.078;2023-02-19T00:04:50;2.42;;;2.00;;
26082;SDS011;13848;49.018;12.078;2023-02-19T00:07:16;3.10;;;2.35;;
26082;SDS011;13848;49.018;12.078;2023-02-19T00:09:42;2.40;;;2.20;;
26082;SDS011;13848;49.018;12.078;2023-02-19T00:12:07;2.72;;;2.42;;
26082;SDS011;13848;49.018;12.078;2023-02-19T00:14:33;2.63;;;2.13;;
26082;SDS011;13848;49.018;12.078;2023-02-19T00:16:59;2.72;;;2.17;;
26082;SDS011;13848;49.018;12.078;2023-02-19T00:19:26;2.38;;;2.10;;
26082;SDS011;13848;49.018;12.078;2023-02-19T00:21:54;2.42;;;2.17;;
26082;SDS011;13848;49.018;12.078;2023-02-19T00:24:20;2.38;;;2.17;;
26082;SDS011;13848;49.018;12.078;2023-02-19T00:26:46;3.28;;;2.35;;
26082;SDS011;13848;49.018;12.078;2023-02-19T00:29:13;2.63;;;2.17;;
26082;SDS011;13848;49.018;12.078;2023-02-19T00:31:40;4.13;;;2.22;;
26082;SDS011;13848;49.018;12.078;2023-02-19T00:34:06;2.72;;;2.15;;
26082;SDS011;13848;49.018;12.078;2023-02-19T00:36:35;2.45;;;2.13;;
26082;SDS011;13848;49.018;12.078;2023-02-19T00:39:04;2.75;;;2.05;;
26082;SDS011;13848;49.018;12.078;2023-02-19T00:41:30;2.17;;;1.98;;
26082;SDS011;13848;49.018;12.078;2023-02-19T00:43:57;2.38;;;2.10;;
26082;SDS011;13848;49.018;12.078;2023-02-19T00:46:25;2.40;;;2.10;;
26082;SDS011;13848;49.018;12.078;2023-02-19T00:48:53;2.70;;;2.10;;
26082;SDS011;13848;49.018;12.078;2023-02-19T00:51:19;2.20;;;1.98;;
26082;SDS011;13848;49.018;12.078;2023-02-19T00:53:46;2.38;;;2.17;;
26082;SDS011;13848;49.018;12.078;2023-02-19T00:56:14;1.95;;;1.65;;
26082;SDS011;13848;49.018;12.078;2023-02-19T00:58:40;2.05;;;1.60;;
26082;SDS011;13848;49.018;12.078;2023-02-19T01:01:06;1.95;;;1.63;;
26082;SDS011;13848;49.018;12.078;2023-02-19T01:03:33;2.33;;;1.73;;
26082;SDS011;13848;49.018;12.078;2023-02-19T01:06:00;1.80;;;1.60;;
26082;SDS011;13848;49.018;12.078;2023-02-19T01:08:26;1.60;;;1.50;;
26082;SDS011;13848;49.018;12.078;2023-02-19T01:10:52;2.10;;;1.40;;
26082;SDS011;13848;49.018;12.078;2023-02-19T01:13:19;1.20;;;1.10;;
26082;SDS011;13848;49.018;12.078;2023-02-19T01:15:45;1.40;;;1.30;;
26082;SDS011;13848;49.018;12.078;2023-02-19T01:18:11;2.40;;;1.27;;
26082;SDS011;13848;49.018;12.078;2023-02-19T01:20:37;1.10;;;1.00;;
26082;SDS011;13848;49.018;12.078;2023-02-19T01:23:04;1.30;;;1.10;;
26082;SDS011;13848;49.018;12.078;2023-02-19T01:25:30;1.40;;;1.30;;
26082;SDS011;13848;49.018;12.078;2023-02-19T01:27:56;1.63;;;1.20;;
26082;SDS011;13848;49.018;12.078;2023-02-19T01:30:23;1.20;;;1.10;;
26082;SDS011;13848;49.018;12.078;2023-02-19T01:32:49;1.00;;;0.90;;
26082;SDS011;13848;49.018;12.078;2023-02-19T01:35:15;1.40;;;0.93;;
26082;SDS011;13848;49.018;12.078;2023-02-19T01:37:41;1.40;;;1.00;;
26082;SDS011;13848;49.018;12.078;2023-02-19T01:40:07;0.80;;;0.80;;
26082;SDS011;13848;49.018;12.078;2023-02-19T01:42:34;0.70;;;0.70;;
26082;SDS011;13848;49.018;12.078;2023-02-19T01:47:55;0.60;;;0.60;;
26082;SDS011;13848;49.018;12.078;2023-02-19T01:50:27;0.70;;;0.70;;
26082;SDS011;13848;49.018;12.078;2023-02-19T01:52:54;0.68;;;0.68;;
26082;SDS011;13848;49.018;12.078;2023-02-19T01:55:21;0.60;;;0.60;;
26082;SDS011;13848;49.018;12.078;2023-02-19T01:57:48;0.50;;;0.50;;
26082;SDS011;13848;49.018;12.078;2023-02-19T02:00:17;0.60;;;0.60;;
26082;SDS011;13848;49.018;12.078;2023-02-19T02:02:47;0.60;;;0.60;;
26082;SDS011;13848;49.018;12.078;2023-02-19T02:07:46;1.50;;;0.70;;
26082;SDS011;13848;49.018;12.078;2023-02-19T02:10:12;1.15;;;0.70;;
26082;SDS011;13848;49.018;12.078;2023-02-19T02:12:38;0.50;;;0.50;;
26082;SDS011;13848;49.018;12.078;2023-02-19T02:15:04;0.60;;;0.60;;
26082;SDS011;13848;49.018;12.078;2023-02-19T02:17:34;0.80;;;0.60;;
26082;SDS011;13848;49.018;12.078;2023-02-19T02:20:18;1.33;;;0.90;;
26082;SDS011;13848;49.018;12.078;2023-02-19T02:22:58;1.75;;;0.70;;
26082;SDS011;13848;49.018;12.078;2023-02-19T02:25:35;1.35;;;0.70;;
26082;SDS011;13848;49.018;12.078;2023-02-19T02:28:21;0.60;;;0.60;;
26082;SDS011;13848;49.018;12.078;2023-02-19T02:31:02;0.50;;;0.50;;
26082;SDS011;13848;49.018;12.078;2023-02-19T02:33:31;0.50;;;0.50;;
26082;SDS011;13848;49.018;12.078;2023-02-19T02:36:04;1.70;;;0.60;;
26082;SDS011;13848;49.018;12.078;2023-02-19T02:38:34;1.75;;;0.55;;
26082;SDS011;13848;49.018;12.078;2023-02-19T02:41:02;0.70;;;0.70;;
26082;SDS011;13848;49.018;12.078;2023-02-19T02:43:29;1.17;;;0.60;;
26082;SDS011;13848;49.018;12.078;2023-02-19T02:45:55;0.93;;;0.70;;
26082;SDS011;13848;49.018;12.078;2023-02-19T02:48:24;0.57;;;0.55;;
26082;SDS011;13848;49.018;12.078;2023-02-19T02:50:53;1.02;;;0.70;;
26082;SDS011;13848;49.018;12.078;2023-02-19T02:53:25;0.98;;;0.70;;
26082;SDS011;13848;49.018;12.078;2023-02-19T02:55:54;0.80;;;0.80;;
26082;SDS011;13848;49.018;12.078;2023-02-19T02:58:21;0.60;;;0.60;;
26082;SDS011;13848;49.018;12.078;2023-02-19T03:00:50;0.70;;;0.70;;
26082;SDS011;13848;49.018;12.078;2023-02-19T03:03:21;0.77;;;0.77;;
26082;SDS011;13848;49.018;12.078;2023-02-19T03:05:51;0.77;;;0.77;;
26082;SDS011;13848;49.018;12.078;2023-02-19T03:08:23;3.60;;;1.10;;
26082;SDS011;13848;49.018;12.078;2023-02-19T03:10:52;1.13;;;0.80;;
26082;SDS011;13848;49.018;12.078;2023-02-19T03:13:21;0.77;;;0.77;;
26082;SDS011;13848;49.018;12.078;2023-02-19T03:15:51;1.05;;;0.90;;
26082;SDS011;13848;49.018;12.078;2023-02-19T03:18:21;1.05;;;0.80;;
26082;SDS011;13848;49.018;12.078;2023-02-19T03:20:54;1.05;;;0.90;;
26082;SDS011;13848;49.018;12.078;2023-02-19T03:23:22;1.02;;;0.90;;
26082;SDS011;13848;49.018;12.078;2023-02-19T03:25:52;1.08;;;0.95;;
26082;SDS011;13848;49.018;12.078;2023-02-19T03:28:18;0.70;;;0.70;;
26082;SDS011;13848;49.018;12.078;2023-02-19T03:30:48;1.35;;;1.02;;
26082;SDS011;13848;49.018;12.078;2023-02-19T03:33:18;2.78;;;0.90;;
26082;SDS011;13848;49.018;12.078;2023-02-19T03:35:49;0.88;;;0.88;;
26082;SDS011;13848;49.018;12.078;2023-02-19T03:38:22;1.90;;;0.88;;
26082;SDS011;13848;49.018;12.078;2023-02-19T03:40:53;0.90;;;0.90;;
26082;SDS011;13848;49.018;12.078;2023-02-19T03:43:26;1.00;;;0.88;;
26082;SDS011;13848;49.018;12.078;2023-02-19T03:46:01;0.80;;;0.80;;
26082;SDS011;13848;49.018;12.078;2023-02-19T03:48:33;1.95;;;1.08;;
26082;SDS011;13848;49.018;12.078;2023-02-19T03:51:06;1.42;;;0.95;;
26082;SDS011;13848;49.018;12.078;2023-02-19T03:53:39;1.05;;;0.95;;
26082;SDS011;13848;49.018;12.078;2023-02-19T03:56:15;0.90;;;0.90;;
26082;SDS011;13848;49.018;12.078;2023-02-19T04:01:18;0.68;;;0.68;;
26082;SDS011;13848;49.018;12.078;2023-02-19T04:03:51;0.88;;;0.80;;
26082;SDS011;13848;49.018;12.078;2023-02-19T04:06:25;1.42;;;0.90;;
26082;SDS011;13848;49.018;12.078;2023-02-19T04:08:55;1.17;;;0.80;;
26082;SDS011;13848;49.018;12.078;2023-02-19T04:11:24;1.00;;;0.80;;
26082;SDS011;13848;49.018;12.078;2023-02-19T04:13:54;0.75;;;0.73;;
26082;SDS011;13848;49.018;12.078;2023-02-19T04:16:23;0.77;;;0.77;;
26082;SDS011;13848;49.018;12.078;2023-02-19T04:18:53;0.57;;;0.57;;
26082;SDS011;13848;49.018;12.078;2023-02-19T04:21:22;1.05;;;0.60;;
26082;SDS011;13848;49.018;12.078;2023-02-19T04:23:53;0.50;;;0.50;;
26082;SDS011;13848;49.018;12.078;2023-02-19T04:26:20;2.05;;;0.60;;
26082;SDS011;13848;49.018;12.078;2023-02-19T04:28:47;0.73;;;0.60;;
26082;SDS011;13848;49.018;12.078;2023-02-19T04:31:13;0.50;;;0.50;;
26082;SDS011;13848;49.018;12.078;2023-02-19T04:33:39;0.63;;;0.40;;
26082;SDS011;13848;49.018;12.078;2023-02-19T04:36:06;0.40;;;0.40;;
26082;SDS011;13848;49.018;12.078;2023-02-19T04:38:35;0.60;;;0.50;;
26082;SDS011;13848;49.018;12.078;2023-02-19T04:41:01;0.50;;;0.50;;
26082;SDS011;13848;49.018;12.078;2023-02-19T04:43:27;0.40;;;0.40;;
26082;SDS011;13848;49.018;12.078;2023-02-19T04:45:53;0.60;;;0.50;;
26082;SDS011;13848;49.018;12.078;2023-02-19T04:48:23;1.05;;;0.50;;
26082;SDS011;13848;49.018;12.078;2023-02-19T04:50:49;0.40;;;0.40;;
26082;SDS011;13848;49.018;12.078;2023-02-19T04:53:15;0.40;;;0.40;;
26082;SDS011;13848;49.018;12.078;2023-02-19T04:55:42;0.38;;;0.38;;
26082;SDS011;13848;49.018;12.078;2023-02-19T04:58:08;0.30;;;0.30;;
26082;SDS011;13848;49.018;12.078;2023-02-19T05:00:34;0.30;;;0.30;;
26082;SDS011;13848;49.018;12.078;2023-02-19T05:03:00;0.30;;;0.30;;
26082;SDS011;13848;49.018;12.078;2023-02-19T05:05:26;0.38;;;0.38;;
26082;SDS011;13848;49.018;12.078;2023-02-19T05:07:52;2.72;;;0.50;;
26082;SDS011;13848;49.018;12.078;2023-02-19T05:10:18;0.30;;;0.30;;
26082;SDS011;13848;49.018;12.078;2023-02-19T05:12:45;0.40;;;0.40;;
26082;SDS011;13848;49.018;12.078;2023-02-19T05:15:11;0.50;;;0.40;;
26082;SDS011;13848;49.018;12.078;2023-02-19T05:17:37;0.30;;;0.30;;
26082;SDS011;13848;49.018;12.078;2023-02-19T05:20:03;0.35;;;0.35;;
26082;SDS011;13848;49.018;12.078;2023-02-19T05:22:29;0.30;;;0.30;;
26082;SDS011;13848;49.018;12.078;2023-02-19T05:24:55;0.38;;;0.38;;
26082;SDS011;13848;49.018;12.078;2023-02-19T05:27:22;0.32;;;0.32;;
26082;SDS011;13848;49.018;12.078;2023-02-19T05:29:49;0.30;;;0.30;;
26082;SDS011;13848;49.018;12.078;2023-02-19T05:32:15;0.57;;;0.40;;
26082;SDS011;13848;49.018;12.078;2023-02-19T05:34:41;0.40;;;0.40;;
26082;SDS011;13848;49.018;12.078;2023-02-19T05:37:06;1.08;;;0.50;;
26082;SDS011;13848;49.018;12.078;2023-02-19T05:39:32;0.40;;;0.40;;
26082;SDS011;13848;49.018;12.078;2023-02-19T05:41:58;0.40;;;0.40;;
26082;SDS011;13848;49.018;12.078;2023-02-19T05:44:24;0.40;;;0.40;;
26082;SDS011;13848;49.018;12.078;2023-02-19T05:46:52;0.30;;;0.30;;
26082;SDS011;13848;49.018;12.078;2023-02-19T05:49:18;0.30;;;0.30;;
26082;SDS011;13848;49.018;12.078;2023-02-19T05:51:43;0.30;;;0.30;;
26082;SDS011;13848;49.018;12.078;2023-02-19T05:54:09;0.95;;;0.40;;
26082;SDS011;13848;49.018;12.078;2023-02-19T05:56:36;0.35;;;0.35;;
26082;SDS011;13848;49.018;12.078;2023-02-19T05:59:04;0.35;;;0.32;;
26082;SDS011;13848;49.018;12.078;2023-02-19T06:01:31;0.47;;;0.40;;
26082;SDS011;13848;49.018;12.078;2023-02-19T06:03:58;0.30;;;0.30;;
26082;SDS011;13848;49.018;12.078;2023-02-19T06:06:24;0.30;;;0.30;;
26082;SDS011;13848;49.018;12.078;2023-02-19T06:08:52;0.40;;;0.40;;
26082;SDS011;13848;49.018;12.078;2023-02-19T06:11:18;0.40;;;0.40;;
26082;SDS011;13848;49.018;12.078;2023-02-19T06:13:44;0.30;;;0.30;;
26082;SDS011;13848;49.018;12.078;2023-02-19T06:16:10;1.08;;;0.60;;
26082;SDS011;13848;49.018;12.078;2023-02-19T06:18:37;0.50;;;0.50;;
26082;SDS011;13848;49.018;12.078;2023-02-19T06:21:05;0.68;;;0.65;;
26082;SDS011;13848;49.018;12.078;2023-02-19T06:23:33;2.10;;;1.08;;
26082;SDS011;13848;49.018;12.078;2023-02-19T06:26:03;1.02;;;0.93;;
26082;SDS011;13848;49.018;12.078;2023-02-19T06:28:33;0.80;;;0.80;;
26082;SDS011;13848;49.018;12.078;2023-02-19T06:30:59;1.48;;;1.05;;
26082;SDS011;13848;49.018;12.078;2023-02-19T06:33:25;1.17;;;1.08;;
26082;SDS011;13848;49.018;12.078;2023-02-19T06:35:51;1.20;;;1.00;;
26082;SDS011;13848;49.018;12.078;2023-02-19T06:38:18;1.48;;;1.02;;
26082;SDS011;13848;49.018;12.078;2023-02-19T06:40:45;1.02;;;1.00;;
26082;SDS011;13848;49.018;12.078;2023-02-19T06:43:11;1.13;;;1.02;;
26082;SDS011;13848;49.018;12.078;2023-02-19T06:45:38;0.95;;;0.95;;
26082;SDS011;13848;49.018;12.078;2023-02-19T06:48:04;1.10;;;1.00;;
26082;SDS011;13848;49.018;12.078;2023-02-19T06:50:30;1.10;;;1.00;;
26082;SDS011;13848;49.018;12.078;2023-02-19T06:52:56;1.20;;;1.10;;
26082;SDS011;13848;49.018;12.078;2023-02-19T06:55:23;1.05;;;0.95;;
26082;SDS011;13848;49.018;12.078;2023-02-19T06:57:49;1.10;;;1.00;;
26082;SDS011;13848;49.018;12.078;2023-02-19T07:00:15;1.20;;;1.10;;
26082;SDS011;13848;49.018;12.078;2023-02-19T07:02:42;1.50;;;1.40;;
26082;SDS011;13848;49.018;12.078;2023-02-19T07:05:08;1.30;;;1.20;;
26082;SDS011;13848;49.018;12.078;2023-02-19T07:07:34;1.27;;;1.17;;
26082;SDS011;13848;49.018;12.078;2023-02-19T07:10:00;1.58;;;1.30;;
26082;SDS011;13848;49.018;12.078;2023-02-19T07:12:27;1.40;;;1.20;;
26082;SDS011;13848;49.018;12.078;2023-02-19T07:14:53;1.35;;;1.20;;
26082;SDS011;13848;49.018;12.078;2023-02-19T07:17:19;2.28;;;1.27;;
26082;SDS011;13848;49.018;12.078;2023-02-19T07:19:45;1.60;;;1.30;;
26082;SDS011;13848;49.018;12.078;2023-02-19T07:22:11;1.20;;;1.10;;
26082;SDS011;13848;49.018;12.078;2023-02-19T07:24:37;2.35;;;1.30;;
26082;SDS011;13848;49.018;12.078;2023-02-19T07:27:03;1.35;;;1.20;;
26082;SDS011;13848;49.018;12.078;2023-02-19T07:29:30;1.15;;;1.00;;
26082;SDS011;13848;49.018;12.078;2023-02-19T07:31:56;1.30;;;1.20;;
26082;SDS011;13848;49.018;12.078;2023-02-19T07:34:22;2.20;;;1.30;;
26082;SDS011;13848;49.018;12.078;2023-02-19T07:36:47;1.38;;;1.10;;
26082;SDS011;13848;49.018;12.078;2023-02-19T07:39:13;1.10;;;1.00;;
26082;SDS011;13848;49.018;12.078;2023-02-19T07:41:39;1.55;;;1.40;;
26082;SDS011;13848;49.018;12.078;2023-02-19T07:44:05;1.33;;;1.23;;
26082;SDS011;13848;49.018;12.078;2023-02-19T07:46:33;2.75;;;2.10;;
26082;SDS011;13848;49.018;12.078;2023-02-19T07:48:59;3.88;;;1.50;;
26082;SDS011;13848;49.018;12.078;2023-02-19T07:51:24;2.10;;;1.30;;
26082;SDS011;13848;49.018;12.078;2023-02-19T07:53:50;1.00;;;0.90;;
26082;SDS011;13848;49.018;12.078;2023-02-19T07:56:17;1.10;;;1.00;;
26082;SDS011;13848;49.018;12.078;2023-02-19T07:58:44;1.25;;;1.15;;
26082;SDS011;13848;49.018;12.078;2023-02-19T08:01:11;2.03;;;1.13;;
26082;SDS011;13848;49.018;12.078;2023-02-19T08:03:40;1.98;;;1.42;;
26082;SDS011;13848;49.018;12.078;2023-02-19T08:06:06;1.30;;;1.10;;
26082;SDS011;13848;49.018;12.078;2023-02-19T08:08:33;1.20;;;1.08;;
26082;SDS011;13848;49.018;12.078;2023-02-19T08:10:59;0.93;;;0.90;;
26082;SDS011;13848;49.018;12.078;2023-02-19T08:13:26;1.42;;;1.30;;
26082;SDS011;13848;49.018;12.078;2023-02-19T08:15:54;1.40;;;1.20;;
26082;SDS011;13848;49.018;12.078;2023-02-19T08:18:33;1.40;;;1.20;;
26082;SDS011;13848;49.018;12.078;2023-02-19T08:21:00;2.38;;;1.63;;
26082;SDS011;13848;49.018;12.078;2023-02-19T08:23:26;3.10;;;1.63;;
26082;SDS011;13848;49.018;12.078;2023-02-19T08:25:55;1.95;;;1.20;;
26082;SDS011;13848;49.018;12.078;2023-02-19T08:28:22;0.95;;;0.90;;
26082;SDS011;13848;49.018;12.078;2023-02-19T08:30:48;0.80;;;0.80;;
26082;SDS011;13848;49.018;12.078;2023-02-19T08:33:15;1.00;;;0.80;;
26082;SDS011;13848;49.018;12.078;2023-02-19T08:35:43;4.97;;;1.33;;
26082;SDS011;13848;49.018;12.078;2023-02-19T08:38:11;3.72;;;0.80;;
26082;SDS011;13848;49.018;12.078;2023-02-19T08:40:38;2.75;;;1.30;;
26082;SDS011;13848;49.018;12.078;2023-02-19T08:43:05;2.17;;;1.00;;
26082;SDS011;13848;49.018;12.078;2023-02-19T08:45:32;2.25;;;1.13;;
26082;SDS011;13848;49.018;12.078;2023-02-19T08:47:58;1.25;;;0.80;;
26082;SDS011;13848;49.018;12.078;2023-02-19T08:50:25;0.52;;;0.52;;
26082;SDS011;13848;49.018;12.078;2023-02-19T08:52:51;0.60;;;0.60;;
26082;SDS011;13848;49.018;12.078;2023-02-19T08:55:18;0.60;;;0.60;;
26082;SDS011;13848;49.018;12.078;2023-02-19T08:57:44;0.82;;;0.77;;
26082;SDS011;13848;49.018;12.078;2023-02-19T09:00:11;1.08;;;0.68;;
26082;SDS011;13848;49.018;12.078;2023-02-19T09:02:38;0.88;;;0.80;;
26082;SDS011;13848;49.018;12.078;2023-02-19T09:05:04;0.60;;;0.60;;
26082;SDS011;13848;49.018;12.078;2023-02-19T09:07:30;0.75;;;0.50;;
26082;SDS011;13848;49.018;12.078;2023-02-19T09:09:56;0.70;;;0.60;;
26082;SDS011;13848;49.018;12.078;2023-02-19T09:12:24;0.60;;;0.60;;
26082;SDS011;13848;49.018;12.078;2023-02-19T09:14:50;2.45;;;0.75;;
26082;SDS011;13848;49.018;12.078;2023-02-19T09:17:16;0.63;;;0.60;;
26082;SDS011;13848;49.018;12.078;2023-02-19T09:19:42;0.68;;;0.68;;
26082;SDS011;13848;49.018;12.078;2023-02-19T09:22:08;0.50;;;0.50;;
26082;SDS011;13848;49.018;12.078;2023-02-19T09:24:34;0.57;;;0.50;;
26082;SDS011;13848;49.018;12.078;2023-02-19T09:27:00;0.63;;;0.60;;
26082;SDS011;13848;49.018;12.078;2023-02-19T09:29:27;0.45;;;0.45;;
26082;SDS011;13848;49.018;12.078;2023-02-19T09:31:57;0.40;;;0.40;;
26082;SDS011;13848;49.018;12.078;2023-02-19T09:34:24;1.45;;;0.32;;
26082;SDS011;13848;49.018;12.078;2023-02-19T09:36:51;0.50;;;0.50;;
26082;SDS011;13848;49.018;12.078;2023-02-19T09:39:17;0.40;;;0.40;;
26082;SDS011;13848;49.018;12.078;2023-02-19T09:41:44;0.32;;;0.32;;
26082;SDS011;13848;49.018;12.078;2023-02-19T09:44:12;0.85;;;0.40;;
26082;SDS011;13848;49.018;12.078;2023-02-19T09:46:50;0.40;;;0.40;;
26082;SDS011;13848;49.018;12.078;2023-02-19T09:49:18;0.52;;;0.50;;
26082;SDS011;13848;49.018;12.078;2023-02-19T09:51:47;0.50;;;0.50;;
26082;SDS011;13848;49.018;12.078;2023-02-19T09:54:18;0.43;;;0.40;;
26082;SDS011;13848;49.018;12.078;2023-02-19T09:56:46;0.50;;;0.50;;
26082;SDS011;13848;49.018;12.078;2023-02-19T09:59:14;0.63;;;0.63;;
26082;SDS011;13848;49.018;12.078;2023-02-19T10:01:44;1.10;;;0.70;;
26082;SDS011;13848;49.018;12.078;2023-02-19T10:04:13;0.57;;;0.50;;
26082;SDS011;13848;49.018;12.078;2023-02-19T10:06:39;0.45;;;0.45;;
26082;SDS011;13848;49.018;12.078;2023-02-19T10:09:12;1.73;;;0.70;;
26082;SDS011;13848;49.018;12.078;2023-02-19T10:11:44;0.57;;;0.57;;
26082;SDS011;13848;49.018;12.078;2023-02-19T10:14:12;0.60;;;0.60;;
26082;SDS011;13848;49.018;12.078;2023-02-19T10:16:44;0.95;;;0.70;;
26082;SDS011;13848;49.018;12.078;2023-02-19T10:19:13;1.45;;;0.80;;
26082;SDS011;13848;49.018;12.078;2023-02-19T10:21:40;0.70;;;0.70;;
26082;SDS011;13848;49.018;12.078;2023-02-19T10:24:06;1.90;;;0.85;;
26082;SDS011;13848;49.018;12.078;2023-02-19T10:26:39;1.52;;;0.80;;
26082;SDS011;13848;49.018;12.078;2023-02-19T10:29:05;1.15;;;0.90;;
26082;SDS011;13848;49.018;12.078;2023-02-19T10:31:31;1.38;;;0.85;;
26082;SDS011;13848;49.018;12.078;2023-02-19T10:33:58;0.80;;;0.80;;
26082;SDS011;13848;49.018;12.078;2023-02-19T10:36:28;0.90;;;0.80;;
26082;SDS011;13848;49.018;12.078;2023-02-19T10:38:56;2.33;;;1.02;;
26082;SDS011;13848;49.018;12.078;2023-02-19T10:41:24;1.08;;;0.98;;
26082;SDS011;13848;49.018;12.078;2023-02-19T10:43:52;1.73;;;1.10;;
26082;SDS011;13848;49.018;12.078;2023-02-19T10:46:21;2.90;;;1.33;;
26082;SDS011;13848;49.018;12.078;2023-02-19T10:48:49;1.45;;;1.10;;
26082;SDS011;13848;49.018;12.078;2023-02-19T10:51:17;1.40;;;0.90;;
26082;SDS011;13848;49.018;12.078;2023-02-19T10:53:46;1.02;;;0.90;;
26082;SDS011;13848;49.018;12.078;2023-02-19T10:56:14;5.18;;;2.45;;
26082;SDS011;13848;49.018;12.078;2023-02-19T10:58:46;2.53;;;1.55;;
26082;SDS011;13848;49.018;12.078;2023-02-19T11:01:14;1.95;;;1.30;;
26082;SDS011;13848;49.018;12.078;2023-02-19T11:03:41;2.42;;;1.42;;
26082;SDS011;13848;49.018;12.078;2023-02-19T11:06:08;1.45;;;1.10;;
26082;SDS011;13848;49.018;12.078;2023-02-19T11:08:44;2.00;;;1.00;;
26082;SDS011;13848;49.018;12.078;2023-02-19T11:11:30;3.25;;;1.05;;
26082;SDS011;13848;49.018;12.078;2023-02-19T11:13:59;2.50;;;0.90;;
26082;SDS011;13848;49.018;12.078;2023-02-19T11:16:36;2.80;;;1.20;;
26082;SDS011;13848;49.018;12.078;2023-02-19T11:19:05;2.88;;;1.10;;
26082;SDS011;13848;49.018;12.078;2023-02-19T11:21:41;1.27;;;1.00;;
26082;SDS011;13848;49.018;12.078;2023-02-19T11:24:08;2.80;;;1.10;;
26082;SDS011;13848;49.018;12.078;2023-02-19T11:26:47;2.80;;;1.33;;
26082;SDS011;13848;49.018;12.078;2023-02-19T11:29:16;1.73;;;1.30;;
26082;SDS011;13848;49.018;12.078;2023-02-19T11:31:44;2.10;;;1.15;;
26082;SDS011;13848;49.018;12.078;2023-02-19T11:34:22;3.75;;;1.50;;
26082;SDS011;13848;49.018;12.078;2023-02-19T11:36:52;3.80;;;1.10;;
26082;SDS011;13848;49.018;12.078;2023-02-19T11:39:33;1.05;;;0.93;;
26082;SDS011;13848;49.018;12.078;2023-02-19T11:45:05;1.92;;;0.98;;
26082;SDS011;13848;49.018;12.078;2023-02-19T11:47:44;2.30;;;0.95;;
26082;SDS011;13848;49.018;12.078;2023-02-19T11:50:38;2.58;;;1.20;;
26082;SDS011;13848;49.018;12.078;2023-02-19T11:53:15;1.00;;;0.80;;
26082;SDS011;13848;49.018;12.078;2023-02-19T11:55:48;1.75;;;0.93;;
26082;SDS011;13848;49.018;12.078;2023-02-19T12:01:18;1.63;;;1.00;;
26082;SDS011;13848;49.018;12.078;2023-02-19T12:06:50;1.88;;;1.15;;
26082;SDS011;13848;49.018;12.078;2023-02-19T12:09:26;2.30;;;1.10;;
26082;SDS011;13848;49.018;12.078;2023-02-19T12:12:12;3.17;;;0.90;;
26082;SDS011;13848;49.018;12.078;2023-02-19T12:20:42;1.58;;;1.10;;
26082;SDS011;13848;49.018;12.078;2023-02-19T12:23:26;1.33;;;1.00;;
26082;SDS011;13848;49.018;12.078;2023-02-19T12:26:08;1.60;;;0.90;;
26082;SDS011;13848;49.018;12.078;2023-02-19T12:28:56;3.28;;;1.70;;
26082;SDS011;13848;49.018;12.078;2023-02-19T12:31:39;3.38;;;1.70;;
26082;SDS011;13848;49.018;12.078;2023-02-19T12:37:20;1.35;;;1.08;;
26082;SDS011;13848;49.018;12.078;2023-02-19T12:39:55;1.13;;;0.90;;
26082;SDS011;13848;49.018;12.078;2023-02-19T12:42:32;2.55;;;1.10;;
26082;SDS011;13848;49.018;12.078;2023-02-19T12:45:07;2.38;;;1.10;;
26082;SDS011;13848;49.018;12.078;2023-02-19T12:47:53;1.55;;;1.20;;
26082;SDS011;13848;49.018;12.078;2023-02-19T12:50:24;6.32;;;1.00;;
26082;SDS011;13848;49.018;12.078;2023-02-19T12:52:52;2.13;;;1.10;;
26082;SDS011;13848;49.018;12.078;2023-02-19T12:55:23;2.58;;;1.10;;
26082;SDS011;13848;49.018;12.078;2023-02-19T12:57:53;2.10;;;0.93;;
26082;SDS011;13848;49.018;12.078;2023-02-19T13:00:27;2.40;;;1.00;;
26082;SDS011;13848;49.018;12.078;2023-02-19T13:02:59;1.60;;;1.20;;
26082;SDS011;13848;49.018;12.078;2023-02-19T13:05:33;1.42;;;1.02;;
26082;SDS011;13848;49.018;12.078;2023-02-19T13:08:06;1.75;;;1.20;;
26082;SDS011;13848;49.018;12.078;2023-02-19T13:10:37;3.47;;;1.40;;
26082;SDS011;13848;49.018;12.078;2023-02-19T13:13:11;2.97;;;1.70;;
26082;SDS011;13848;49.018;12.078;2023-02-19T13:15:45;2.15;;;1.20;;
26082;SDS011;13848;49.018;12.078;2023-02-19T13:18:17;0.93;;;0.90;;
26082;SDS011;13848;49.018;12.078;2023-02-19T13:20:45;1.10;;;0.90;;
26082;SDS011;13848;49.018;12.078;2023-02-19T13:23:14;2.15;;;1.20;;
26082;SDS011;13848;49.018;12.078;2023-02-19T13:25:50;3.70;;;1.80;;
26082;SDS011;13848;49.018;12.078;2023-02-19T13:28:32;2.17;;;1.45;;
26082;SDS011;13848;49.018;12.078;2023-02-19T13:31:24;2.05;;;1.30;;
26082;SDS011;13848;49.018;12.078;2023-02-19T13:34:08;2.72;;;1.27;;
26082;SDS011;13848;49.018;12.078;2023-02-19T13:36:46;1.15;;;1.05;;
26082;SDS011;13848;49.018;12.078;2023-02-19T13:39:14;2.72;;;1.17;;
26082;SDS011;13848;49.018;12.078;2023-02-19T13:41:42;2.67;;;1.10;;
26082;SDS011;13848;49.018;12.078;2023-02-19T13:44:15;2.47;;;1.08;;
26082;SDS011;13848;49.018;12.078;2023-02-19T13:46:44;3.80;;;0.90;;
26082;SDS011;13848;49.018;12.078;2023-02-19T13:49:36;1.35;;;0.93;;
26082;SDS011;13848;49.018;12.078;2023-02-19T14:01:16;2.22;;;1.10;;
26082;SDS011;13848;49.018;12.078;2023-02-19T14:03:47;2.35;;;1.10;;
26082;SDS011;13848;49.018;12.078;2023-02-19T14:06:19;3.47;;;1.20;;
26082;SDS011;13848;49.018;12.078;2023-02-19T14:08:47;1.50;;;1.02;;
26082;SDS011;13848;49.018;12.078;2023-02-19T14:11:14;2.08;;;1.13;;
26082;SDS011;13848;49.018;12.078;2023-02-19T14:13:56;5.07;;;1.88;;
26082;SDS011;13848;49.018;12.078;2023-02-19T14:18:56;1.45;;;1.10;;
26082;SDS011;13848;49.018;12.078;2023-02-19T14:21:24;1.48;;;0.80;;
26082;SDS011;13848;49.018;12.078;2023-02-19T14:23:58;2.42;;;1.08;;
26082;SDS011;13848;49.018;12.078;2023-02-19T14:26:25;1.35;;;0.93;;
26082;SDS011;13848;49.018;12.078;2023-02-19T14:28:52;2.08;;;0.90;;
26082;SDS011;13848;49.018;12.078;2023-02-19T14:31:27;1.23;;;0.90;;
26082;SDS011;13848;49.018;12.078;2023-02-19T14:33:55;3.33;;;1.00;;
26082;SDS011;13848;49.018;12.078;2023-02-19T14:36:36;1.73;;;1.20;;
26082;SDS011;13848;49.018;12.078;2023-02-19T14:39:09;3.30;;;1.80;;
26082;SDS011;13848;49.018;12.078;2023-02-19T14:44:06;1.33;;;1.08;;
26082;SDS011;13848;49.018;12.078;2023-02-19T14:46:40;1.83;;;1.20;;
26082;SDS011;13848;49.018;12.078;2023-02-19T14:49:12;1.45;;;0.90;;
26082;SDS011;13848;49.018;12.078;2023-02-19T14:51:46;1.15;;;1.02;;
26082;SDS011;13848;49.018;12.078;2023-02-19T14:54:16;1.73;;;0.93;;
26082;SDS011;13848;49.018;12.078;2023-02-19T14:56:45;2.10;;;0.93;;
26082;SDS011;13848;49.018;12.078;2023-02-19T14:59:22;2.08;;;1.10;;
26082;SDS011;13848;49.018;12.078;2023-02-19T15:01:54;2.55;;;1.20;;
26082;SDS011;13848;49.018;12.078;2023-02-19T15:04:22;1.20;;;1.00;;
26082;SDS011;13848;49.018;12.078;2023-02-19T15:06:55;3.75;;;1.40;;
26082;SDS011;13848;49.018;12.078;2023-02-19T15:09:27;2.50;;;1.52;;
26082;SDS011;13848;49.018;12.078;2023-02-19T15:11:56;1.75;;;1.17;;
26082;SDS011;13848;49.018;12.078;2023-02-19T15:14:22;1.60;;;1.10;;
26082;SDS011;13848;49.018;12.078;2023-02-19T15:16:51;1.80;;;1.20;;
26082;SDS011;13848;49.018;12.078;2023-02-19T15:21:48;4.95;;;1.40;;
26082;SDS011;13848;49.018;12.078;2023-02-19T15:24:16;2.08;;;1.05;;
26082;SDS011;13848;49.018;12.078;2023-02-19T15:26:46;2.85;;;1.45;;
26082;SDS011;13848;49.018;12.078;2023-02-19T15:29:14;2.58;;;1.48;;